»·PEaware :: N172TT KLAS-KLAX

N172TT :: KLAS-KLAX

FLIGHT INFORMATION

Flight Status: Arrived
Operator: Privately registered:
United States
More flights under this callsign
Pilot: Thomas T. (19955)
Aircraft: BEECH AIRCRAFT BARON
(BE58)
More flights by this aircraft type
Origin: KLAS McCarran Intl
United States
Destination: KLAX Los Angeles Intl
United States
More flights between these airports :: More routes between these airports
Route: +LAS V538 GFS V210 HEC V12 PMD KIMMO3
File this flight plan on PilotEdge
Remarks:
Altitude:
(Current/Filed)
11,000ft
Speed:
(Current/Filed)
168kts
Departed: 16-Nov-18 08:49 AM
Arrived: 16-Nov-18 10:14 AM
Distance/Time
Traveled:
205nm/1:24
Distance/Time
To Go:
Arrived

Flight Plot

Page will automatically refresh every two minutes.


Map Options




Map Legend


Flown Route
Filed Route
Departure Airport
Arrival Airport
Navaid (VOR, NDB)
Fix

Horizontal Profiles

Position Reports

Time Latitude Longitude Heading Altitude Ground
Speed
16-Nov-18 08:35 36.083850 -115.169964 89 2160ft 0kts
16-Nov-18 08:36 36.083850 -115.169964 89 2160ft 0kts
16-Nov-18 08:37 36.083850 -115.169964 89 2160ft 0kts
16-Nov-18 08:38 36.083850 -115.169964 89 2160ft 0kts
16-Nov-18 08:39 36.083850 -115.169964 89 2160ft 0kts
16-Nov-18 08:40 36.083850 -115.169964 89 2160ft 0kts
16-Nov-18 08:41 36.083850 -115.169964 89 2160ft 0kts
16-Nov-18 08:42 36.083850 -115.169964 89 2160ft 0kts
16-Nov-18 08:43 36.084174 -115.168640 32 2156ft 15kts
16-Nov-18 08:44 36.088189 -115.165376 26 2135ft 22kts
16-Nov-18 08:45 36.094233 -115.161935 26 2106ft 24kts
16-Nov-18 08:46 36.099651 -115.158304 77 2085ft 18kts
16-Nov-18 08:47 36.099725 -115.158056 71 2084ft 0kts
16-Nov-18 08:48 36.099725 -115.158056 71 2084ft 0kts
16-Nov-18 08:49 36.099819 -115.157715 75 2083ft 0kts
16-Nov-18 08:50 36.099819 -115.157715 75 2083ft 0kts
16-Nov-18 08:51 36.099065 -115.156771 201 2081ft 8kts
16-Nov-18 08:52 36.076024 -115.169271 203 2623ft 135kts
16-Nov-18 08:53 36.040959 -115.178090 192 4204ft 129kts
16-Nov-18 08:54 36.006295 -115.186268 192 5555ft 134kts
16-Nov-18 08:55 35.969444 -115.198149 192 6670ft 140kts
16-Nov-18 08:56 35.931622 -115.202196 168 7750ft 139kts
16-Nov-18 08:57 35.891925 -115.193928 168 8581ft 148kts
16-Nov-18 08:58 35.851272 -115.185328 168 9408ft 149kts
16-Nov-18 08:59 35.810486 -115.177364 173 10187ft 150kts
16-Nov-18 09:00 35.768549 -115.176918 178 10924ft 152kts
16-Nov-18 09:01 35.722121 -115.176902 179 10967ft 175kts
16-Nov-18 09:02 35.672405 -115.176878 179 10992ft 182kts
16-Nov-18 09:03 35.621625 -115.176840 179 10992ft 183kts
16-Nov-18 09:04 35.574658 -115.187842 228 10997ft 183kts
16-Nov-18 09:05 35.543697 -115.235204 231 10992ft 184kts
16-Nov-18 09:06 35.511534 -115.284232 231 10992ft 184kts
16-Nov-18 09:07 35.479468 -115.333101 231 10992ft 184kts
16-Nov-18 09:08 35.447333 -115.382070 231 10992ft 184kts
16-Nov-18 09:09 35.415207 -115.431008 231 10992ft 184kts
16-Nov-18 09:10 35.382994 -115.480069 231 10992ft 184kts
16-Nov-18 09:11 35.351028 -115.528745 231 11007ft 184kts
16-Nov-18 09:12 35.318959 -115.577619 231 11010ft 184kts
16-Nov-18 09:13 35.286761 -115.626673 231 11010ft 184kts
16-Nov-18 09:14 35.256001 -115.673512 231 11037ft 184kts
16-Nov-18 09:15 35.223861 -115.722167 231 11036ft 184kts
16-Nov-18 09:16 35.191565 -115.770075 231 11035ft 183kts
16-Nov-18 09:17 35.158811 -115.818829 231 11036ft 188kts
16-Nov-18 09:18 35.125485 -115.868563 231 11034ft 189kts
16-Nov-18 09:19 35.092710 -115.917531 231 11030ft 189kts
16-Nov-18 09:20 35.059316 -115.967433 231 11028ft 189kts
16-Nov-18 09:21 35.026194 -116.016911 231 11031ft 189kts
16-Nov-18 09:22 34.992905 -116.066674 231 11038ft 190kts
16-Nov-18 09:23 34.959489 -116.116716 231 11046ft 190kts
16-Nov-18 09:24 34.926168 -116.166758 231 11054ft 191kts
16-Nov-18 09:25 34.893849 -116.215433 231 11050ft 192kts
16-Nov-18 09:26 34.861540 -116.264168 231 11042ft 192kts
16-Nov-18 09:27 34.827998 -116.314658 231 11031ft 193kts
16-Nov-18 09:28 34.794322 -116.365213 231 11019ft 193kts
16-Nov-18 09:29 34.771184 -116.421008 264 11011ft 190kts
16-Nov-18 09:30 34.764960 -116.484854 265 11010ft 190kts
16-Nov-18 09:31 34.755934 -116.547938 265 11010ft 190kts
16-Nov-18 09:32 34.752616 -116.610652 282 11011ft 188kts
16-Nov-18 09:33 34.762742 -116.671890 283 11009ft 188kts
16-Nov-18 09:34 34.749220 -116.720860 250 11009ft 191kts
16-Nov-18 09:35 34.737251 -116.793927 264 11009ft 190kts
16-Nov-18 09:36 34.732631 -116.846718 265 11009ft 190kts
16-Nov-18 09:37 34.726733 -116.920697 266 11009ft 189kts
16-Nov-18 09:38 34.721737 -116.983895 266 11009ft 188kts
16-Nov-18 09:39 34.717575 -117.036473 266 11010ft 190kts
16-Nov-18 09:40 34.712054 -117.105389 266 11009ft 189kts
16-Nov-18 09:41 34.707833 -117.157948 266 11009ft 188kts
16-Nov-18 09:42 34.702720 -117.221201 266 11009ft 188kts
16-Nov-18 09:43 34.696698 -117.295121 266 11009ft 188kts
16-Nov-18 09:44 34.692365 -117.347979 266 11009ft 188kts
16-Nov-18 09:45 34.687153 -117.411169 266 11009ft 188kts
16-Nov-18 09:46 34.681889 -117.474589 266 11009ft 188kts
16-Nov-18 09:47 34.676620 -117.537676 266 11010ft 188kts
16-Nov-18 09:48 34.671298 -117.600994 266 11010ft 188kts
16-Nov-18 09:49 34.666005 -117.663578 266 11009ft 188kts
16-Nov-18 09:50 34.660660 -117.726406 266 11008ft 188kts
16-Nov-18 09:51 34.655277 -117.789276 266 11008ft 187kts
16-Nov-18 09:52 34.649897 -117.851715 266 11008ft 187kts
16-Nov-18 09:53 34.644553 -117.913373 266 11011ft 186kts
16-Nov-18 09:54 34.639182 -117.974977 266 11014ft 186kts
16-Nov-18 09:55 34.633730 -118.037154 266 11017ft 186kts
16-Nov-18 09:56 34.612972 -118.093102 235 11019ft 190kts
16-Nov-18 09:57 34.581165 -118.144336 234 11019ft 190kts
16-Nov-18 09:58 34.549235 -118.195486 234 11018ft 190kts
16-Nov-18 09:59 34.517293 -118.246558 234 11013ft 190kts
16-Nov-18 10:00 34.484382 -118.299151 234 10326ft 209kts
16-Nov-18 10:01 34.449035 -118.355463 234 9500ft 211kts
16-Nov-18 10:02 34.411189 -118.408384 197 8653ft 213kts
16-Nov-18 10:03 34.356988 -118.386283 154 7850ft 211kts
16-Nov-18 10:04 34.308001 -118.357766 153 7809ft 187kts
16-Nov-18 10:05 34.263126 -118.331696 153 7837ft 192kts
16-Nov-18 10:06 34.213264 -118.303609 154 6834ft 185kts
16-Nov-18 10:07 34.173053 -118.280846 154 5621ft 154kts
16-Nov-18 10:08 34.135720 -118.262883 167 4361ft 148kts
16-Nov-18 10:09 34.098139 -118.255181 171 3201ft 142kts
16-Nov-18 10:10 34.061133 -118.248733 172 2984ft 169kts
16-Nov-18 10:11 34.015009 -118.243994 194 2800ft 192kts
16-Nov-18 10:12 33.971797 -118.258076 195 2575ft 141kts
16-Nov-18 10:13 33.950321 -118.279569 247 1808ft 116kts
16-Nov-18 10:14 33.943496 -118.317703 260 1405ft 119kts
16-Nov-18 10:15 33.940290 -118.354281 262 695ft 101kts
16-Nov-18 10:16 33.936947 -118.386982 261 98ft 81kts
16-Nov-18 10:17 33.934849 -118.392898 140 99ft 14kts

Navigation Log

Ident Type
Flight plan parsing failed, navigation log unavailable